Time;durP1;ratioP1;P1;durP2;ratioP2;P2;SDS_P1;SDS_P2;PMS_P1;PMS_P2;Temp;Humidity;BMP_temperature;BMP_pressure;BME280_temperature;BME280_humidity;BME280_pressure;Samples;Min_cycle;Max_cycle;Signal;HPM_P1;HPM_P2
2021/10/18 00:00:03;;;;;;;17.90;9.30;;;;;;;6.07;73.61;97200.89;115396;1184;30754;-89
2021/10/18 00:02:51;;;;;;;16.50;10.00;;;;;;;6.08;73.79;97205.19;115538;1198;27639;-90
2021/10/18 00:05:19;;;;;;;14.00;9.20;;;;;;;6.10;73.72;97204.73;115484;1192;26195;-90
2021/10/18 00:07:47;;;;;;;20.00;9.30;;;;;;;6.13;73.51;97203.95;115468;1198;24778;-89
2021/10/18 00:10:15;;;;;;;17.50;10.40;;;;;;;6.11;73.60;97202.81;115345;1193;42338;-90
2021/10/18 00:12:44;;;;;;;20.20;10.90;;;;;;;6.11;73.57;97202.17;115403;1193;27820;-89
2021/10/18 00:15:16;;;;;;;17.60;11.30;;;;;;;6.08;73.62;97201.28;115424;1192;28757;-88
2021/10/18 00:17:44;;;;;;;17.00;10.10;;;;;;;6.07;73.69;97202.16;115443;1198;24975;-89
2021/10/18 00:20:15;;;;;;;15.40;10.50;;;;;;;6.14;73.66;97204.29;115433;1199;28715;-89
2021/10/18 00:22:43;;;;;;;16.50;10.40;;;;;;;6.18;74.03;97199.14;115404;1199;31053;-89
2021/10/18 00:25:12;;;;;;;18.30;9.30;;;;;;;6.20;73.91;97203.77;115408;1199;27619;-89
2021/10/18 00:27:40;;;;;;;15.40;9.50;;;;;;;6.21;73.84;97203.06;115491;1198;29116;-89
2021/10/18 00:30:10;;;;;;;14.70;8.70;;;;;;;6.23;74.22;97203.24;115438;1199;26251;-89
2021/10/18 00:32:38;;;;;;;15.60;9.70;;;;;;;6.27;74.42;97205.67;115401;1199;45568;-88
2021/10/18 00:35:09;;;;;;;15.90;8.70;;;;;;;6.32;74.39;97201.55;115404;1199;31387;-89
2021/10/18 00:37:37;;;;;;;15.00;8.70;;;;;;;6.38;74.16;97200.46;115479;1198;26676;-89
2021/10/18 00:40:08;;;;;;;18.30;9.20;;;;;;;6.41;74.42;97198.39;115477;1198;27510;-90
2021/10/18 00:42:36;;;;;;;14.90;10.00;;;;;;;6.41;74.56;97198.79;115495;1199;26081;-89
2021/10/18 00:45:05;;;;;;;14.40;9.20;;;;;;;6.41;74.66;97197.05;115449;1194;26732;-89
2021/10/18 00:47:33;;;;;;;13.30;8.30;;;;;;;6.41;74.54;97198.46;115476;1186;26245;-89
2021/10/18 00:50:01;;;;;;;13.80;8.90;;;;;;;6.40;74.29;97194.08;115468;1199;27065;-89
2021/10/18 00:52:29;;;;;;;16.00;9.00;;;;;;;6.42;74.27;97197.84;115432;1199;26624;-89
2021/10/18 00:54:57;;;;;;;17.20;9.00;;;;;;;6.42;74.64;97194.73;115440;1199;25273;-89
2021/10/18 00:57:25;;;;;;;16.50;8.80;;;;;;;6.41;74.68;97192.45;115452;1199;26646;-88
2021/10/18 00:59:54;;;;;;;14.70;7.40;;;;;;;6.37;74.59;97192.17;115374;1199;25718;-90
2021/10/18 01:02:23;;;;;;;12.00;7.80;;;;;;;6.36;74.49;97187.95;115428;1199;25468;-89
2021/10/18 01:04:52;;;;;;;14.20;8.20;;;;;;;6.35;74.28;97188.15;115377;1192;25433;-89
2021/10/18 01:07:20;;;;;;;16.80;9.30;;;;;;;6.38;74.50;97188.98;115456;1198;27384;-89
2021/10/18 01:09:49;;;;;;;17.00;8.80;;;;;;;6.43;74.61;97193.00;115427;1199;25478;-90
2021/10/18 01:12:17;;;;;;;14.50;8.10;;;;;;;6.47;74.39;97192.86;115395;1199;27885;-89
2021/10/18 01:14:45;;;;;;;13.00;8.50;;;;;;;6.47;74.38;97194.08;115422;1192;26378;-91
2021/10/18 01:17:13;;;;;;;12.80;8.00;;;;;;;6.45;74.67;97196.27;115425;1198;28560;-90
2021/10/18 01:19:41;;;;;;;13.80;8.00;;;;;;;6.43;75.02;97199.23;115441;1198;25798;-89
2021/10/18 01:22:09;;;;;;;14.10;7.30;;;;;;;6.44;74.83;97200.02;115502;1198;25883;-90
2021/10/18 01:24:38;;;;;;;13.90;8.00;;;;;;;6.46;74.70;97202.64;115418;1199;29787;-90
2021/10/18 01:27:06;;;;;;;14.70;8.00;;;;;;;6.44;74.86;97198.77;115426;1199;27107;-89
2021/10/18 01:29:37;;;;;;;15.40;8.90;;;;;;;6.44;74.45;97198.88;115412;1199;33115;-90
2021/10/18 01:32:07;;;;;;;15.00;8.60;;;;;;;6.41;73.97;97202.56;115470;1199;26623;-90
2021/10/18 01:34:36;;;;;;;19.00;9.30;;;;;;;6.38;73.66;97200.58;115431;1199;26728;-90
2021/10/18 01:37:05;;;;;;;12.70;8.30;;;;;;;6.36;73.69;97204.23;115463;1199;25059;-90
2021/10/18 01:39:33;;;;;;;15.50;9.00;;;;;;;6.36;73.85;97205.28;115428;1199;28803;-89
2021/10/18 01:42:02;;;;;;;14.00;8.60;;;;;;;6.34;73.65;97205.85;115413;1199;26999;-86
2021/10/18 01:44:30;;;;;;;12.50;7.30;;;;;;;6.31;73.87;97202.28;115501;1198;27394;-89
2021/10/18 01:46:58;;;;;;;13.60;7.40;;;;;;;6.31;73.49;97202.11;115453;1198;39738;-90
2021/10/18 01:49:26;;;;;;;11.70;6.80;;;;;;;6.32;73.31;97195.80;115544;1199;28264;-89
2021/10/18 01:51:54;;;;;;;11.60;6.90;;;;;;;6.32;73.14;97192.86;115441;1199;27474;-90
2021/10/18 01:54:22;;;;;;;11.20;6.90;;;;;;;6.31;73.05;97188.95;115451;1199;27735;-89
2021/10/18 01:56:50;;;;;;;13.00;7.20;;;;;;;6.31;72.75;97186.79;115459;1199;27562;-89
2021/10/18 01:59:18;;;;;;;10.70;6.00;;;;;;;6.29;72.87;97188.48;115545;1192;27532;-90
2021/10/18 02:01:46;;;;;;;10.70;6.20;;;;;;;6.29;72.77;97185.65;115447;1199;28669;-89
2021/10/18 02:04:14;;;;;;;13.10;6.80;;;;;;;6.30;72.59;97178.34;115421;1199;28034;-89
2021/10/18 02:06:42;;;;;;;13.00;6.00;;;;;;;6.31;72.63;97176.45;115455;1192;27218;-89
2021/10/18 02:09:10;;;;;;;11.70;6.50;;;;;;;6.31;72.43;97180.27;115415;1199;26030;-89
2021/10/18 02:11:38;;;;;;;9.60;6.40;;;;;;;6.29;72.32;97181.91;115403;1199;27529;-89
2021/10/18 02:14:06;;;;;;;10.10;5.60;;;;;;;6.28;72.17;97178.47;115428;1184;28215;-90
2021/10/18 02:16:34;;;;;;;8.20;5.40;;;;;;;6.25;72.50;97177.48;115409;1199;29427;-90
2021/10/18 02:19:02;;;;;;;10.30;6.60;;;;;;;6.22;72.34;97177.27;115431;1193;34382;-89
2021/10/18 02:21:30;;;;;;;10.50;6.40;;;;;;;6.18;72.28;97178.88;115512;1199;28111;-90
2021/10/18 02:23:58;;;;;;;10.90;6.40;;;;;;;6.14;72.41;97177.22;115367;1200;25142;-89
2021/10/18 02:26:30;;;;;;;15.00;6.70;;;;;;;6.11;72.18;97176.29;115439;1199;26448;-89
2021/10/18 02:28:59;;;;;;;11.50;6.20;;;;;;;6.09;72.34;97180.14;115556;1198;25759;-89
2021/10/18 02:31:27;;;;;;;11.00;6.50;;;;;;;6.05;72.39;97179.41;115503;1199;26629;-89
2021/10/18 02:33:55;;;;;;;10.70;6.70;;;;;;;6.01;72.52;97181.98;115480;1192;25318;-89
2021/10/18 02:36:23;;;;;;;11.30;6.50;;;;;;;5.99;72.60;97181.42;115468;1199;26224;-89
2021/10/18 02:38:51;;;;;;;11.00;6.10;;;;;;;5.98;72.61;97183.98;115569;1198;26047;-88
2021/10/18 02:41:19;;;;;;;11.80;6.30;;;;;;;5.94;72.53;97183.86;115489;1199;27355;-90
2021/10/18 02:43:47;;;;;;;11.20;6.20;;;;;;;5.90;72.54;97183.95;115413;1199;27193;-90
2021/10/18 02:46:15;;;;;;;11.10;6.50;;;;;;;5.88;72.28;97181.17;115404;1193;26063;-89
2021/10/18 02:48:44;;;;;;;9.90;6.10;;;;;;;5.90;72.32;97180.19;115410;1198;27322;-89
2021/10/18 02:51:12;;;;;;;9.50;6.60;;;;;;;5.89;72.30;97181.36;115371;1198;40463;-90
2021/10/18 02:53:40;;;;;;;8.10;5.40;;;;;;;5.85;72.41;97182.59;115481;1198;25273;-89
2021/10/18 02:56:08;;;;;;;8.70;5.70;;;;;;;5.79;72.60;97190.02;115527;1192;28436;-89
2021/10/18 02:58:36;;;;;;;9.20;6.00;;;;;;;5.75;72.74;97189.85;115402;1199;28359;-89
2021/10/18 03:01:04;;;;;;;12.40;6.20;;;;;;;5.74;72.71;97184.98;115425;1193;28256;-89
2021/10/18 03:03:32;;;;;;;11.80;6.40;;;;;;;5.73;72.77;97184.52;115458;1199;27302;-88
2021/10/18 03:06:00;;;;;;;12.00;5.90;;;;;;;5.76;72.62;97182.20;115378;1199;28282;-89
2021/10/18 03:08:28;;;;;;;10.30;5.60;;;;;;;5.78;72.62;97179.05;115531;1199;30898;-89
2021/10/18 03:10:56;;;;;;;10.20;6.20;;;;;;;5.79;72.47;97177.48;115605;1199;28279;-89
2021/10/18 03:13:24;;;;;;;9.60;6.00;;;;;;;5.83;72.55;97178.45;115498;1199;27006;-89
2021/10/18 03:15:52;;;;;;;10.50;6.30;;;;;;;5.87;72.33;97174.63;115516;1198;44730;-89
2021/10/18 03:18:20;;;;;;;9.80;5.80;;;;;;;5.92;72.12;97174.83;115488;1198;28388;-90
2021/10/18 03:20:48;;;;;;;8.60;5.40;;;;;;;5.93;72.29;97174.44;115491;1199;27369;-89
2021/10/18 03:23:16;;;;;;;10.80;5.70;;;;;;;5.95;72.18;97174.04;115284;1197;26850;-90
2021/10/18 03:25:44;;;;;;;11.00;5.90;;;;;;;5.95;72.11;97181.04;115433;1199;29276;-90
2021/10/18 03:28:12;;;;;;;10.90;5.90;;;;;;;5.97;72.11;97183.06;115436;1199;29688;-90
2021/10/18 03:30:41;;;;;;;10.60;6.00;;;;;;;5.97;72.15;97183.96;115377;1199;27212;-88
2021/10/18 03:33:09;;;;;;;11.80;5.60;;;;;;;5.98;72.05;97187.75;115410;1199;28922;-90
2021/10/18 03:35:37;;;;;;;11.30;5.80;;;;;;;5.98;72.22;97188.02;115441;1198;35516;-90
2021/10/18 03:38:05;;;;;;;11.40;6.00;;;;;;;5.98;72.08;97186.88;115489;1198;26866;-89
2021/10/18 03:40:33;;;;;;;8.40;6.10;;;;;;;5.99;72.02;97184.84;115507;1198;29036;-89
2021/10/18 03:43:01;;;;;;;11.00;6.60;;;;;;;5.97;72.33;97190.43;115442;1198;26169;-88
2021/10/18 03:45:29;;;;;;;10.20;6.40;;;;;;;5.90;72.52;97187.23;115577;1199;27899;-89
2021/10/18 03:47:57;;;;;;;9.20;6.00;;;;;;;5.83;72.70;97190.13;115500;1199;27193;-89
2021/10/18 03:50:25;;;;;;;10.40;6.10;;;;;;;5.78;72.78;97199.82;115471;1198;26839;-89
2021/10/18 03:52:54;;;;;;;12.90;7.20;;;;;;;5.75;72.93;97195.69;115494;1198;27799;-91
2021/10/18 03:55:22;;;;;;;11.50;6.80;;;;;;;5.72;73.14;97196.96;115473;1199;26334;-89
2021/10/18 03:57:50;;;;;;;12.40;6.30;;;;;;;5.69;73.09;97193.38;115453;1199;28809;-90
2021/10/18 04:00:18;;;;;;;11.80;6.90;;;;;;;5.66;73.36;97199.69;115440;1199;26742;-90
2021/10/18 04:02:46;;;;;;;10.50;6.60;;;;;;;5.62;73.49;97197.75;115435;1193;26609;-90
2021/10/18 04:05:14;;;;;;;13.30;7.00;;;;;;;5.61;73.67;97197.20;115453;1199;25849;-89
2021/10/18 04:07:46;;;;;;;10.30;6.80;;;;;;;5.61;73.55;97202.20;115499;1199;26726;-90
2021/10/18 04:10:17;;;;;;;13.70;7.40;;;;;;;5.61;73.66;97205.74;115239;1199;26708;-91
2021/10/18 04:12:45;;;;;;;12.40;7.30;;;;;;;5.62;73.77;97205.38;115520;1198;25422;-90
2021/10/18 04:15:13;;;;;;;10.40;6.00;;;;;;;5.65;73.79;97204.93;115538;1199;37400;-90
2021/10/18 04:17:42;;;;;;;12.00;7.10;;;;;;;5.66;73.82;97208.80;115453;1199;27544;-90
2021/10/18 04:20:10;;;;;;;12.90;7.70;;;;;;;5.66;73.91;97215.54;115477;1198;25641;-91
2021/10/18 04:22:38;;;;;;;12.50;7.10;;;;;;;5.68;74.05;97216.04;115497;1199;27956;-90
2021/10/18 04:25:08;;;;;;;11.90;7.50;;;;;;;5.69;74.21;97212.58;115591;1198;26046;-91
2021/10/18 04:27:36;;;;;;;12.50;7.70;;;;;;;5.72;74.00;97217.96;115524;1199;26475;-90
2021/10/18 04:30:07;;;;;;;11.20;6.40;;;;;;;5.76;73.71;97217.13;115473;1199;27024;-89
2021/10/18 04:32:35;;;;;;;10.30;5.30;;;;;;;5.84;73.46;97218.42;115444;1198;27478;-90
2021/10/18 04:35:05;;;;;;;14.90;6.50;;;;;;;5.97;73.41;97221.59;115438;1192;27267;-89
2021/10/18 04:37:33;;;;;;;10.40;6.90;;;;;;;6.05;73.45;97223.46;115543;1198;29441;-89
2021/10/18 04:40:01;;;;;;;10.40;6.20;;;;;;;6.05;73.28;97219.73;115549;1198;34738;-87
2021/10/18 04:42:29;;;;;;;10.40;6.60;;;;;;;6.04;73.17;97222.19;115511;1199;25181;-89
2021/10/18 04:44:57;;;;;;;14.40;6.90;;;;;;;6.03;73.13;97226.54;115460;1199;27913;-89
2021/10/18 04:47:25;;;;;;;14.60;7.60;;;;;;;6.04;73.16;97231.14;115438;1199;28881;-88
2021/10/18 04:49:53;;;;;;;13.20;7.00;;;;;;;6.04;73.10;97233.03;115489;1198;27330;-90
2021/10/18 04:52:21;;;;;;;13.70;6.80;;;;;;;6.05;73.25;97235.81;115437;1199;39820;-90
2021/10/18 04:54:49;;;;;;;12.30;6.40;;;;;;;6.07;73.25;97231.27;115399;1199;27406;-89
2021/10/18 04:57:17;;;;;;;15.20;8.70;;;;;;;6.10;73.17;97225.91;115484;1199;27321;-89
2021/10/18 04:59:45;;;;;;;11.70;8.60;;;;;;;6.11;73.23;97226.45;115520;1199;28372;-88
2021/10/18 05:02:13;;;;;;;12.80;8.30;;;;;;;6.11;73.06;97236.39;115424;1199;26242;-90
2021/10/18 05:04:41;;;;;;;12.70;8.30;;;;;;;6.07;73.21;97242.70;115562;1198;25399;-89
2021/10/18 05:07:09;;;;;;;12.90;8.20;;;;;;;6.09;73.22;97247.25;115486;1198;24764;-89
2021/10/18 05:09:38;;;;;;;13.10;7.30;;;;;;;6.10;73.22;97247.59;115415;1199;26154;-90
2021/10/18 05:12:07;;;;;;;13.50;8.40;;;;;;;6.12;73.07;97252.84;115416;1199;26505;-90
2021/10/18 05:14:35;;;;;;;12.20;7.50;;;;;;;6.13;73.11;97257.80;115368;1194;28510;-89
2021/10/18 05:17:03;;;;;;;12.70;7.80;;;;;;;6.16;73.12;97260.80;115390;1199;29834;-89
2021/10/18 05:19:31;;;;;;;14.60;8.10;;;;;;;6.19;73.20;97266.02;115408;1199;27175;-89
2021/10/18 05:21:59;;;;;;;11.30;7.10;;;;;;;6.19;73.24;97266.88;115457;1193;29868;-88
2021/10/18 05:24:27;;;;;;;14.80;6.80;;;;;;;6.19;73.09;97265.45;115149;1200;26553;-90
2021/10/18 05:26:55;;;;;;;12.60;8.00;;;;;;;6.19;73.12;97266.39;115448;1199;30205;-90
2021/10/18 05:29:25;;;;;;;11.60;7.90;;;;;;;6.21;73.27;97266.77;115245;1193;26102;-90
2021/10/18 05:31:54;;;;;;;11.00;8.00;;;;;;;6.24;73.26;97275.41;115450;1199;29071;-89
2021/10/18 05:34:22;;;;;;;12.40;8.20;;;;;;;6.27;73.11;97274.05;115392;1199;31402;-89
2021/10/18 05:36:50;;;;;;;11.40;6.30;;;;;;;6.31;73.21;97278.10;115410;1199;27525;-89
2021/10/18 05:39:18;;;;;;;9.50;5.50;;;;;;;6.34;73.19;97281.07;115471;1184;27782;-89
2021/10/18 05:41:46;;;;;;;11.10;5.70;;;;;;;6.38;72.92;97289.10;115446;1198;30510;-89
2021/10/18 05:44:15;;;;;;;13.10;6.00;;;;;;;6.42;72.72;97290.86;115482;1194;29577;-90
2021/10/18 05:46:43;;;;;;;8.50;4.90;;;;;;;6.47;72.54;97299.27;115466;1199;26584;-90
2021/10/18 05:49:11;;;;;;;8.30;5.30;;;;;;;6.50;72.31;97300.46;115484;1198;29362;-89
2021/10/18 05:51:39;;;;;;;9.00;5.80;;;;;;;6.53;72.15;97297.77;115468;1198;26364;-89
2021/10/18 05:54:08;;;;;;;11.50;5.20;;;;;;;6.55;71.90;97305.06;115494;1193;25364;-89
2021/10/18 05:56:36;;;;;;;8.80;5.30;;;;;;;6.57;71.76;97303.56;115525;1198;27356;-90
2021/10/18 05:59:04;;;;;;;10.10;5.70;;;;;;;6.60;71.53;97307.20;115458;1198;28182;-89
2021/10/18 06:01:32;;;;;;;9.30;5.20;;;;;;;6.62;71.28;97310.95;115398;1199;27811;-89
2021/10/18 06:04:03;;;;;;;9.40;5.50;;;;;;;6.65;71.13;97312.73;115452;1199;25950;-89
2021/10/18 06:06:33;;;;;;;8.00;5.20;;;;;;;6.67;71.21;97315.30;115454;1199;25529;-87
2021/10/18 06:09:01;;;;;;;9.00;4.50;;;;;;;6.68;71.37;97323.32;115339;1193;31015;-89
2021/10/18 06:11:29;;;;;;;9.10;5.70;;;;;;;6.69;71.37;97320.17;115307;1200;28874;-88
2021/10/18 06:13:58;;;;;;;12.10;5.90;;;;;;;6.70;71.21;97320.27;115511;1198;26812;-90
2021/10/18 06:16:26;;;;;;;11.40;5.60;;;;;;;6.73;71.37;97321.98;115448;1199;32414;-89
2021/10/18 06:18:54;;;;;;;9.80;5.10;;;;;;;6.77;71.40;97321.23;115384;1199;25416;-89
2021/10/18 06:21:24;;;;;;;9.10;4.90;;;;;;;6.80;70.94;97318.39;115389;1192;38440;-90
2021/10/18 06:23:52;;;;;;;6.80;4.40;;;;;;;6.85;70.70;97321.00;115369;1199;29336;-89
2021/10/18 06:26:20;;;;;;;7.90;4.10;;;;;;;6.91;70.52;97320.48;115444;1199;35200;-89
2021/10/18 06:28:48;;;;;;;7.00;4.30;;;;;;;6.95;70.38;97324.92;115370;1193;32707;-89
2021/10/18 06:31:16;;;;;;;7.60;4.50;;;;;;;6.99;70.44;97330.20;115395;1199;30289;-89
2021/10/18 06:33:45;;;;;;;9.30;5.10;;;;;;;7.03;70.19;97333.16;115420;1193;25922;-89
2021/10/18 06:36:13;;;;;;;7.60;4.30;;;;;;;7.05;70.33;97338.50;115390;1198;33032;-89
2021/10/18 06:38:41;;;;;;;9.60;5.20;;;;;;;7.07;70.35;97342.16;115360;1193;30009;-89
2021/10/18 06:41:09;;;;;;;8.50;4.20;;;;;;;7.09;70.49;97345.36;115391;1199;31440;-88
2021/10/18 06:43:37;;;;;;;9.20;4.60;;;;;;;7.10;70.40;97346.75;115392;1199;28393;-89
2021/10/18 06:46:05;;;;;;;8.20;4.60;;;;;;;7.10;70.41;97347.49;115363;1187;30193;-89
2021/10/18 06:48:36;;;;;;;8.80;5.20;;;;;;;7.08;70.41;97352.63;115185;1200;27509;-89
2021/10/18 06:51:04;;;;;;;9.40;4.80;;;;;;;7.06;70.53;97352.38;115176;1200;28025;-90
2021/10/18 06:53:34;;;;;;;9.70;5.40;;;;;;;7.04;70.83;97356.55;115373;1199;28987;-87
2021/10/18 06:56:04;;;;;;;11.00;5.80;;;;;;;7.00;71.05;97359.54;115445;1199;32270;-90
2021/10/18 06:58:33;;;;;;;7.50;4.90;;;;;;;6.97;71.26;97362.44;115408;1199;25827;-88
2021/10/18 07:01:01;;;;;;;12.10;6.10;;;;;;;6.92;71.52;97364.73;115443;1199;26356;-89
2021/10/18 07:03:29;;;;;;;10.40;5.50;;;;;;;6.90;71.68;97368.91;115447;1199;25569;-89
2021/10/18 07:05:59;;;;;;;10.60;5.30;;;;;;;6.89;72.09;97368.66;115487;1199;27024;-89
2021/10/18 07:08:27;;;;;;;7.10;5.20;;;;;;;6.87;72.34;97368.63;115453;1193;26652;-90
2021/10/18 07:10:55;;;;;;;11.10;5.50;;;;;;;6.86;72.54;97368.34;115373;1199;27082;-89
2021/10/18 07:13:23;;;;;;;9.30;5.60;;;;;;;6.83;72.89;97369.92;115409;1192;27517;-89
2021/10/18 07:15:51;;;;;;;9.00;5.60;;;;;;;6.81;73.27;97373.70;115348;1197;32259;-89
2021/10/18 07:18:19;;;;;;;8.60;5.40;;;;;;;6.80;73.15;97378.47;115422;1193;27453;-90
2021/10/18 07:20:47;;;;;;;8.30;5.30;;;;;;;6.80;73.61;97379.20;115383;1199;30083;-90
2021/10/18 07:23:15;;;;;;;9.60;5.50;;;;;;;6.79;73.90;97377.25;115584;1193;26323;-89
2021/10/18 07:25:44;;;;;;;8.10;4.90;;;;;;;6.77;74.07;97375.52;115569;1192;27369;-90
2021/10/18 07:28:13;;;;;;;12.70;5.60;;;;;;;6.75;74.22;97376.91;115446;1199;26863;-89
2021/10/18 07:30:44;;;;;;;10.70;5.40;;;;;;;6.75;74.61;97377.94;115471;1199;29954;-90
2021/10/18 07:33:12;;;;;;;9.00;4.80;;;;;;;6.74;74.84;97374.29;115555;1198;27576;-89
2021/10/18 07:35:40;;;;;;;9.00;4.80;;;;;;;6.74;75.07;97375.02;115386;1199;30529;-89
2021/10/18 07:38:09;;;;;;;9.90;5.40;;;;;;;6.75;75.24;97382.38;115366;1199;34185;-89
2021/10/18 07:40:38;;;;;;;7.80;5.70;;;;;;;6.77;75.53;97382.33;115420;1199;32577;-90
2021/10/18 07:43:07;;;;;;;9.70;6.40;;;;;;;6.78;75.91;97388.52;115426;1199;26769;-90
2021/10/18 07:45:35;;;;;;;8.20;4.70;;;;;;;6.79;76.07;97388.27;115383;1198;33827;-90
2021/10/18 07:48:03;;;;;;;8.60;5.00;;;;;;;6.81;76.03;97390.13;115361;1198;28278;-90
2021/10/18 07:50:32;;;;;;;9.00;5.20;;;;;;;6.83;76.03;97393.90;115504;1198;28071;-89
2021/10/18 07:53:00;;;;;;;10.10;5.60;;;;;;;6.85;76.20;97400.95;115546;1198;27749;-90
2021/10/18 07:55:30;;;;;;;9.00;5.60;;;;;;;6.87;75.99;97401.68;115578;1198;31828;-90
2021/10/18 07:57:58;;;;;;;9.80;5.70;;;;;;;6.89;76.09;97404.52;115513;1199;26706;-89
2021/10/18 08:00:26;;;;;;;7.90;4.80;;;;;;;6.91;75.98;97403.47;115593;1199;30350;-89
2021/10/18 08:02:54;;;;;;;9.50;5.40;;;;;;;6.94;76.04;97405.67;115395;1199;28527;-90
2021/10/18 08:05:24;;;;;;;9.80;5.50;;;;;;;6.96;76.10;97406.34;115544;1192;29350;-88
2021/10/18 08:07:54;;;;;;;8.50;5.30;;;;;;;6.98;76.25;97408.38;115534;1198;29898;-90
2021/10/18 08:10:26;;;;;;;12.10;5.70;;;;;;;7.02;76.26;97407.25;115262;1200;28340;-91
2021/10/18 08:12:55;;;;;;;12.00;5.30;;;;;;;7.10;76.11;97409.92;115252;1193;27353;-88
2021/10/18 08:15:25;;;;;;;10.30;5.20;;;;;;;7.17;75.99;97412.09;115364;1199;26582;-89
2021/10/18 08:17:53;;;;;;;9.90;6.00;;;;;;;7.22;75.67;97410.08;115202;1192;50170;-88
2021/10/18 08:20:22;;;;;;;8.90;5.60;;;;;;;7.27;76.06;97404.36;115404;1193;27138;-89
2021/10/18 08:22:50;;;;;;;10.30;5.90;;;;;;;7.33;75.88;97406.13;115438;1198;29815;-89
2021/10/18 08:25:19;;;;;;;11.00;5.70;;;;;;;7.39;75.88;97408.70;115515;1199;29112;-89
2021/10/18 08:27:48;;;;;;;10.90;6.10;;;;;;;7.43;75.84;97410.18;115435;1198;29526;-91
2021/10/18 08:30:16;;;;;;;10.50;5.40;;;;;;;7.48;75.97;97414.23;115503;1198;38489;-89
2021/10/18 08:32:44;;;;;;;10.30;6.10;;;;;;;7.52;75.78;97416.15;115557;1193;30739;-89
2021/10/18 08:35:12;;;;;;;11.40;6.10;;;;;;;7.53;75.59;97415.73;115382;1199;27030;-89
2021/10/18 08:40:30;;;;;;;10.80;5.90;;;;;;;7.59;75.83;97416.20;115507;1199;34497;-89
2021/10/18 08:43:02;;;;;;;9.60;5.90;;;;;;;7.64;75.74;97419.30;115590;1199;30015;-90
2021/10/18 08:45:30;;;;;;;10.60;6.10;;;;;;;7.71;75.73;97422.73;115628;1198;26401;-89
2021/10/18 08:47:59;;;;;;;8.90;6.00;;;;;;;7.74;75.57;97424.48;115557;1199;29581;-90
2021/10/18 08:50:27;;;;;;;10.40;5.30;;;;;;;7.77;75.49;97424.16;115469;1199;27171;-89
2021/10/18 08:52:55;;;;;;;10.00;6.10;;;;;;;7.73;75.38;97423.13;115486;1199;30975;-90
2021/10/18 08:55:23;;;;;;;9.70;5.80;;;;;;;7.66;75.23;97427.56;115499;1199;28077;-89
2021/10/18 08:57:52;;;;;;;10.10;5.20;;;;;;;7.59;75.36;97429.19;115550;1199;27895;-90
2021/10/18 09:00:41;;;;;;;9.90;6.00;;;;;;;7.55;75.63;97433.66;115480;1199;30256;-88
2021/10/18 09:03:22;;;;;;;8.60;5.50;;;;;;;7.58;75.97;97433.96;115542;1199;26858;-89
2021/10/18 09:05:51;;;;;;;11.50;6.00;;;;;;;7.67;76.47;97431.23;115504;1199;27205;-90
2021/10/18 09:08:34;;;;;;;10.70;5.40;;;;;;;7.76;76.37;97439.51;115242;1195;28555;-89
2021/10/18 09:11:12;;;;;;;11.90;5.30;;;;;;;7.83;76.22;97440.35;115271;1199;28399;-89
2021/10/18 09:13:55;;;;;;;8.10;5.10;;;;;;;7.85;76.27;97436.77;115405;1199;29207;-89
2021/10/18 09:16:25;;;;;;;10.00;5.60;;;;;;;7.82;76.22;97433.52;115166;1193;27164;-89
2021/10/18 09:19:06;;;;;;;8.70;5.20;;;;;;;7.80;76.45;97435.49;115373;1192;28946;-90
2021/10/18 09:21:37;;;;;;;7.00;4.50;;;;;;;7.80;76.64;97442.41;115400;1198;27989;-89
2021/10/18 09:24:08;;;;;;;10.60;5.00;;;;;;;7.85;76.62;97445.96;115403;1199;27903;-90
2021/10/18 09:26:39;;;;;;;9.50;6.00;;;;;;;7.86;76.68;97447.88;115486;1193;26327;-89
2021/10/18 09:29:10;;;;;;;9.30;6.00;;;;;;;7.84;76.82;97443.15;115511;1199;37463;-90
2021/10/18 09:31:41;;;;;;;10.80;6.10;;;;;;;7.82;77.07;97449.84;115544;1198;34848;-89
2021/10/18 09:34:12;;;;;;;10.30;6.20;;;;;;;7.82;77.15;97452.10;115451;1199;42082;-90
2021/10/18 09:36:42;;;;;;;10.50;6.50;;;;;;;7.82;77.21;97451.94;115568;1199;26662;-90
2021/10/18 09:39:17;;;;;;;10.60;5.90;;;;;;;7.83;77.42;97452.63;115477;1198;28303;-89
2021/10/18 09:42:02;;;;;;;9.10;6.30;;;;;;;7.83;77.69;97452.27;115374;1198;24596;-90
2021/10/18 09:45:23;;;;;;;10.70;6.40;;;;;;;7.80;78.04;97452.45;115356;1193;33307;-89
2021/10/18 09:48:28;;;;;;;10.50;6.40;;;;;;;7.76;78.30;97451.17;115397;1199;36066;-89
2021/10/18 10:51:12;;;;;;;9.00;5.10;;;;;;;8.24;82.57;97472.14;115468;1199;29413;-88
2021/10/18 10:53:47;;;;;;;7.50;5.30;;;;;;;8.27;82.64;97475.14;115546;1198;27039;-89
2021/10/18 10:56:25;;;;;;;8.70;5.60;;;;;;;8.31;82.56;97472.89;115552;1198;30585;-89
2021/10/18 10:59:00;;;;;;;10.70;5.10;;;;;;;8.32;82.49;97471.27;115593;1192;27050;-90
2021/10/18 11:01:54;;;;;;;6.30;4.70;;;;;;;8.31;82.39;97465.98;115668;1199;26558;-90
2021/10/18 11:04:54;;;;;;;9.50;4.80;;;;;;;8.24;82.29;97467.08;115491;1199;27030;-89
2021/10/18 11:07:43;;;;;;;;;;;;;;;8.21;82.41;97474.64;115584;1198;26907;-88
2021/10/18 11:10:11;;;;;;;8.10;4.70;;;;;;;8.18;82.53;97474.33;115385;1199;27716;-88
2021/10/18 11:12:42;;;;;;;9.50;4.50;;;;;;;8.14;82.55;97481.07;115537;1199;28886;-89
2021/10/18 11:15:13;;;;;;;7.30;4.20;;;;;;;8.10;82.76;97477.15;115532;1192;25293;-89
2021/10/18 11:17:46;;;;;;;8.60;4.20;;;;;;;8.08;82.87;97467.35;115516;1199;27709;-89
2021/10/18 11:20:16;;;;;;;7.80;3.70;;;;;;;8.12;83.16;97450.14;115500;1198;26472;-89
2021/10/18 11:22:46;;;;;;;6.80;4.20;;;;;;;8.18;83.08;97447.13;115482;1198;29072;-89
2021/10/18 11:25:16;;;;;;;5.10;3.40;;;;;;;8.25;83.36;97449.23;115486;1198;26627;-90
2021/10/18 11:27:50;;;;;;;4.10;2.80;;;;;;;8.33;83.33;97443.98;115211;1199;33458;-89
2021/10/18 11:30:25;;;;;;;6.30;3.90;;;;;;;8.39;83.23;97451.72;115382;1199;25508;-89
2021/10/18 11:32:59;;;;;;;6.50;4.10;;;;;;;8.42;83.39;97450.48;115329;1199;26223;-90
2021/10/18 11:35:29;;;;;;;6.20;4.00;;;;;;;8.44;83.50;97460.20;115573;1198;26733;-89
2021/10/18 11:38:00;;;;;;;5.90;3.50;;;;;;;8.47;83.36;97455.54;115541;1199;26437;-88
2021/10/18 11:40:32;;;;;;;7.80;4.70;;;;;;;8.47;83.20;97456.44;115481;1199;26481;-89
2021/10/18 11:43:01;;;;;;;7.70;4.40;;;;;;;8.48;83.06;97456.29;115430;1199;26231;-90
2021/10/18 11:45:32;;;;;;;7.70;4.20;;;;;;;8.45;83.28;97454.52;115445;1199;26940;-88
2021/10/18 11:48:07;;;;;;;6.20;4.00;;;;;;;8.44;83.19;97456.00;115333;1200;29136;-88
2021/10/18 11:50:39;;;;;;;6.20;4.00;;;;;;;8.41;83.13;97457.55;115117;1200;30468;-89
2021/10/18 11:53:15;;;;;;;5.50;4.40;;;;;;;8.37;83.37;97456.35;115225;1193;34938;-87
2021/10/18 11:55:46;;;;;;;6.60;4.20;;;;;;;8.41;83.71;97452.64;115524;1198;28918;-89
2021/10/18 11:58:18;;;;;;;7.20;4.70;;;;;;;8.45;83.52;97452.77;115494;1199;27420;-89
2021/10/18 12:00:46;;;;;;;9.50;4.60;;;;;;;8.48;83.71;97450.33;115502;1198;25660;-89
2021/10/18 12:03:17;;;;;;;5.80;4.30;;;;;;;8.52;83.69;97456.09;115582;1198;26196;-90
2021/10/18 12:05:47;;;;;;;4.50;3.10;;;;;;;8.57;83.71;97459.42;115621;1198;27431;-89
2021/10/18 12:08:17;;;;;;;5.50;3.80;;;;;;;8.64;83.61;97464.81;115583;1192;27031;-88
2021/10/18 12:10:47;;;;;;;4.90;3.70;;;;;;;8.70;83.54;97463.70;115548;1184;27483;-90
2021/10/18 12:13:21;;;;;;;5.60;4.00;;;;;;;8.73;83.54;97458.73;115517;1198;26202;-88
2021/10/18 12:15:52;;;;;;;5.80;3.50;;;;;;;8.76;83.35;97461.54;115501;1199;26425;-90
2021/10/18 12:18:23;;;;;;;4.40;3.00;;;;;;;8.73;83.26;97458.16;115517;1198;29748;-90
2021/10/18 12:20:53;;;;;;;4.30;3.50;;;;;;;8.72;83.45;97468.12;115516;1198;26194;-90
2021/10/18 12:23:29;;;;;;;6.50;3.40;;;;;;;8.71;83.44;97465.84;115548;1198;27442;-89
2021/10/18 12:26:01;;;;;;;4.60;3.00;;;;;;;8.71;83.42;97463.98;115668;1198;25204;-89
2021/10/18 12:28:45;;;;;;;4.10;3.30;;;;;;;8.68;83.48;97465.85;115629;1192;27377;-90
2021/10/18 12:31:39;;;;;;;4.80;3.30;;;;;;;8.66;83.52;97457.73;115464;1195;26806;-90
2021/10/18 12:34:13;;;;;;;5.10;3.40;;;;;;;8.60;83.65;97454.56;115464;1198;28249;-90
2021/10/18 12:36:55;;;;;;;4.00;3.00;;;;;;;8.58;83.82;97452.25;115381;1199;26106;-88
2021/10/18 12:39:47;;;;;;;7.00;3.80;;;;;;;8.59;83.98;97456.02;115429;1199;26713;-90
2021/10/18 12:42:48;;;;;;;5.60;4.00;;;;;;;8.62;84.09;97449.98;115411;1199;26602;-88
2021/10/18 12:45:18;;;;;;;5.90;3.70;;;;;;;8.66;84.02;97452.04;115402;1199;28401;-89